This is the latest recevied weather packets stored in our database for station/object YM7KGL-1. If no packets are shown the sender has not sent any weather packets the latest 10 day(s).
| Time | Temp. | Humidity | Pressure | Rain* | Wind** | Luminosity | Snow |
|---|---|---|---|---|---|---|---|
| 1777826554 | 12.22° C | 54% | 1007.9 hPa | - | - | - | - |
| 1777822353 | 13.33° C | 54% | 1008.8 hPa | - | - | - | - |
| 1777821452 | 13.33° C | 54% | 1009 hPa | - | - | - | - |
| 1777817837 | 13.89° C | 54% | 1009.8 hPa | - | - | - | - |
| 1777816937 | 13.89° C | 54% | 1009.9 hPa | - | - | - | - |
| 1777812649 | 13.89° C | 54% | 1010.2 hPa | - | - | - | - |
| 1777811748 | 13.89° C | 54% | 1010.3 hPa | - | - | - | - |
| 1777810848 | 13.89° C | 54% | 1010.6 hPa | - | - | - | - |
| 1777809696 | 13.89° C | 53% | 1010.7 hPa | - | - | - | - |
| 1777806995 | 14.44° C | 53% | 1011.4 hPa | - | - | - | - |
| 1777806095 | 14.44° C | 53% | 1011.5 hPa | - | - | - | - |
| 1777805966 | 14.44° C | 53% | 1011.6 hPa | - | - | - | - |
| 1777800726 | 15° C | 53% | 1012.4 hPa | - | - | - | - |
| 1777799826 | 15° C | 53% | 1012.5 hPa | - | - | - | - |
| 1777798926 | 15° C | 53% | 1012.5 hPa | - | - | - | - |
| 1777798026 | 14.44° C | 53% | 1012.7 hPa | - | - | - | - |
| 1777797126 | 13.89° C | 54% | 1012.7 hPa | - | - | - | - |
| 1777796302 | 13.89° C | 54% | 1013 hPa | - | - | - | - |
| 1777795402 | 13.33° C | 53% | 1012.7 hPa | - | - | - | - |
| 1777794502 | 13.89° C | 53% | 1013 hPa | - | - | - | - |
| 1777793601 | 14.44° C | 52% | 1013.2 hPa | - | - | - | - |
| 1777792718 | 15° C | 51% | 1013.3 hPa | - | - | - | - |
| 1777791831 | 12.78° C | 54% | 1013.4 hPa | - | - | - | - |
| 1777790998 | 12.78° C | 54% | 1013.3 hPa | - | - | - | - |
| 1777790900 | 12.78° C | 54% | 1013.4 hPa | - | - | - | - |
* Rain since midnight (hover to see other rain measurements)
** Current wind speed in m/s (hover to see current wind gust speed)